Time;durP1;ratioP1;P1;durP2;ratioP2;P2;SDS_P1;SDS_P2;PMS_P1;PMS_P2;Temp;Humidity;BMP_temperature;BMP_pressure;BME280_temperature;BME280_humidity;BME280_pressure;Samples;Min_cycle;Max_cycle;Signal;HPM_P1;HPM_P2
2023/11/04 00:01:17;;;;;;;5.25;2.47;;;6.50;99.90;;;;;;7371912;19;20102;-65
2023/11/04 00:03:44;;;;;;;4.30;2.50;;;6.50;99.90;;;;;;7372157;19;20046;-66
2023/11/04 00:06:10;;;;;;;4.60;2.55;;;6.50;99.90;;;;;;7371050;19;20617;-65
2023/11/04 00:08:39;;;;;;;3.47;2.22;;;6.50;99.90;;;;;;7371140;19;20749;-66
2023/11/04 00:11:06;;;;;;;3.50;2.05;;;6.50;99.90;;;;;;7371214;19;20018;-66
2023/11/04 00:13:33;;;;;;;4.47;2.40;;;6.50;99.90;;;;;;7373293;19;20018;-61
2023/11/04 00:15:59;;;;;;;3.42;2.10;;;6.40;99.90;;;;;;7372827;19;20026;-61
2023/11/04 00:18:27;;;;;;;4.38;2.95;;;6.50;99.90;;;;;;7374648;19;20086;-61
2023/11/04 00:20:54;;;;;;;3.90;2.08;;;6.40;99.90;;;;;;7372123;19;20018;-61
2023/11/04 00:23:24;;;;;;;2.97;2.13;;;6.50;99.90;;;;;;7373739;19;20022;-65
2023/11/04 00:25:50;;;;;;;4.20;2.00;;;6.40;99.90;;;;;;7371600;19;20588;-65
2023/11/04 00:28:19;;;;;;;2.97;2.33;;;6.50;99.90;;;;;;7375155;19;20046;-65
2023/11/04 00:30:49;;;;;;;4.30;2.28;;;6.40;99.90;;;;;;7369734;19;20010;-65
2023/11/04 00:33:36;;;;;;;2.65;2.03;;;6.50;99.90;;;;;;7370871;19;20018;-66
2023/11/04 00:36:22;;;;;;;4.78;2.40;;;6.40;99.90;;;;;;7378441;19;20026;-65
2023/11/04 00:39:09;;;;;;;4.03;2.50;;;6.50;99.90;;;;;;7377280;19;20010;-66
2023/11/04 00:41:57;;;;;;;3.67;2.10;;;6.50;99.90;;;;;;7378957;19;20363;-65
2023/11/04 00:44:43;;;;;;;3.97;2.45;;;6.50;99.90;;;;;;7377697;19;20366;-61
2023/11/04 00:47:29;;;;;;;4.45;2.20;;;6.60;99.90;;;;;;7378107;19;20026;-61
2023/11/04 00:50:22;;;;;;;3.78;2.13;;;6.60;99.90;;;;;;7381495;19;20026;-61
2023/11/04 00:53:08;;;;;;;3.85;2.38;;;6.70;99.90;;;;;;7376936;19;20018;-61
2023/11/04 00:55:55;;;;;;;4.30;2.10;;;6.80;99.90;;;;;;7373969;19;20026;-62
2023/11/04 00:58:41;;;;;;;4.20;2.20;;;6.90;99.90;;;;;;7377163;19;20022;-61
2023/11/04 01:01:27;;;;;;;3.63;1.77;;;7.00;99.90;;;;;;7377678;19;20019;-62
2023/11/04 01:04:13;;;;;;;5.43;1.83;;;7.10;99.90;;;;;;7381315;19;20028;-66
2023/11/04 01:07:00;;;;;;;3.20;1.92;;;7.10;99.90;;;;;;7380661;19;20768;-66
2023/11/04 01:09:48;;;;;;;5.45;1.92;;;7.10;99.90;;;;;;7377147;19;20110;-66
2023/11/04 01:12:34;;;;;;;2.25;1.42;;;7.10;99.90;;;;;;7377139;19;21901;-66
2023/11/04 01:15:21;;;;;;;3.50;1.90;;;7.20;99.90;;;;;;7377943;19;20019;-66
2023/11/04 01:18:07;;;;;;;4.28;1.52;;;7.30;99.90;;;;;;7376061;19;20032;-66
2023/11/04 01:20:54;;;;;;;5.10;1.73;;;7.30;99.90;;;;;;7372850;19;20136;-66
2023/11/04 01:23:41;;;;;;;2.63;1.63;;;7.30;99.90;;;;;;7376631;19;20377;-66
2023/11/04 01:26:27;;;;;;;5.25;1.58;;;7.40;99.90;;;;;;7370128;19;20023;-66
2023/11/04 01:29:14;;;;;;;4.00;1.70;;;7.40;99.90;;;;;;7376853;19;20026;-66
2023/11/04 01:32:01;;;;;;;6.50;1.40;;;7.50;99.90;;;;;;7373253;19;20037;-66
2023/11/04 01:34:47;;;;;;;3.80;1.60;;;7.50;99.90;;;;;;7378470;19;20098;-62
2023/11/04 01:37:33;;;;;;;2.03;1.52;;;7.60;99.90;;;;;;7376320;19;20039;-66
2023/11/04 01:40:21;;;;;;;3.45;1.60;;;7.60;99.90;;;;;;7374109;19;21419;-66
2023/11/04 01:43:08;;;;;;;4.25;1.65;;;7.60;99.90;;;;;;7377480;19;20029;-66
2023/11/04 01:46:22;;;;;;;3.03;1.58;;;7.70;99.90;;;;;;7373992;19;20022;-66
2023/11/04 01:49:08;;;;;;;3.88;2.00;;;7.70;99.90;;;;;;7375586;19;20015;-66
2023/11/04 01:51:57;;;;;;;3.47;1.65;;;7.70;99.90;;;;;;7373921;19;20727;-66
2023/11/04 01:54:43;;;;;;;4.78;2.05;;;7.80;99.90;;;;;;7374996;19;20029;-62
2023/11/04 01:57:29;;;;;;;5.22;2.00;;;7.80;99.90;;;;;;7370035;19;20030;-62
2023/11/04 02:00:16;;;;;;;6.18;2.05;;;7.80;99.90;;;;;;7374373;19;20034;-61
2023/11/04 02:03:06;;;;;;;3.40;1.83;;;7.90;99.90;;;;;;7371270;19;20027;-61
2023/11/04 02:05:52;;;;;;;5.00;1.90;;;7.90;99.90;;;;;;7373929;19;20018;-62
2023/11/04 02:08:38;;;;;;;3.65;1.50;;;7.90;99.90;;;;;;7374298;19;20817;-66
2023/11/04 02:11:25;;;;;;;4.43;1.73;;;8.00;99.90;;;;;;7374606;19;20042;-61
2023/11/04 02:14:12;;;;;;;6.78;2.80;;;8.00;99.90;;;;;;7375590;19;20051;-62
2023/11/04 02:16:58;;;;;;;3.97;2.55;;;8.00;99.90;;;;;;7373752;19;20714;-62
2023/11/04 02:19:45;;;;;;;3.70;1.90;;;8.10;99.90;;;;;;7372732;19;20018;-66
2023/11/04 02:22:31;;;;;;;4.03;2.30;;;8.00;99.90;;;;;;7375109;19;20672;-66
2023/11/04 02:25:18;;;;;;;5.28;2.20;;;8.10;99.90;;;;;;7376950;19;20082;-66
2023/11/04 02:28:04;;;;;;;5.40;2.00;;;8.10;99.90;;;;;;7376360;19;20557;-61
2023/11/04 02:30:50;;;;;;;4.68;2.55;;;8.10;99.90;;;;;;7372502;19;20022;-62
2023/11/04 02:33:38;;;;;;;4.22;2.40;;;8.10;99.90;;;;;;7375662;19;20015;-62
2023/11/04 02:36:25;;;;;;;5.07;2.33;;;8.10;99.90;;;;;;7375935;19;20025;-62
2023/11/04 02:39:11;;;;;;;7.43;3.08;;;8.20;99.90;;;;;;7376241;19;20018;-66
2023/11/04 02:41:58;;;;;;;5.72;2.80;;;8.20;99.90;;;;;;7375692;19;20481;-67
2023/11/04 02:44:45;;;;;;;7.25;3.20;;;8.20;99.90;;;;;;7372929;19;20131;-62
2023/11/04 02:47:35;;;;;;;6.10;2.67;;;8.20;99.90;;;;;;7373510;19;20030;-62
2023/11/04 02:50:21;;;;;;;8.50;2.90;;;8.20;99.90;;;;;;7370927;19;20019;-66
2023/11/04 02:53:08;;;;;;;7.32;3.05;;;8.20;99.90;;;;;;7373331;19;20022;-62
2023/11/04 02:55:54;;;;;;;5.35;2.78;;;8.30;99.90;;;;;;7375570;19;20030;-62
2023/11/04 02:58:41;;;;;;;5.47;3.65;;;8.30;99.90;;;;;;7370833;19;20014;-62
2023/11/04 03:01:27;;;;;;;9.85;3.33;;;8.30;99.90;;;;;;7371841;19;20026;-62
2023/11/04 03:04:14;;;;;;;5.47;3.10;;;8.30;99.90;;;;;;7372384;19;20093;-66
2023/11/04 03:07:00;;;;;;;5.82;3.83;;;8.30;99.90;;;;;;7369963;19;20031;-67
2023/11/04 03:09:46;;;;;;;6.00;3.53;;;8.30;99.90;;;;;;7372219;19;20034;-66
2023/11/04 03:12:32;;;;;;;9.65;3.80;;;8.20;99.90;;;;;;7370095;19;20024;-67
2023/11/04 03:15:20;;;;;;;5.30;3.22;;;8.20;99.90;;;;;;7373071;19;20030;-64
2023/11/04 03:18:07;;;;;;;7.78;3.88;;;8.20;99.90;;;;;;7370232;19;20015;-62
2023/11/04 03:20:54;;;;;;;6.70;3.03;;;8.20;99.90;;;;;;7370401;19;20015;-62
2023/11/04 03:23:41;;;;;;;7.88;3.53;;;8.30;99.90;;;;;;7370615;19;20895;-62
2023/11/04 03:26:27;;;;;;;10.32;2.67;;;8.30;99.90;;;;;;7374276;19;20524;-62
2023/11/04 03:29:13;;;;;;;7.22;3.05;;;8.30;99.90;;;;;;7373629;19;20026;-62
2023/11/04 03:31:59;;;;;;;6.93;3.20;;;8.30;99.90;;;;;;7371365;19;20033;-62
2023/11/04 03:34:45;;;;;;;5.47;3.53;;;8.40;99.90;;;;;;7371592;19;20565;-62
2023/11/04 03:37:34;;;;;;;6.82;3.40;;;8.30;99.90;;;;;;7372338;19;20022;-62
2023/11/04 03:40:23;;;;;;;4.78;3.33;;;8.30;99.90;;;;;;7374001;19;20101;-66
2023/11/04 03:43:09;;;;;;;6.78;3.88;;;8.40;99.90;;;;;;7371522;19;20018;-66
2023/11/04 03:45:56;;;;;;;5.72;3.33;;;8.40;99.90;;;;;;7369333;19;20521;-62
2023/11/04 03:48:42;;;;;;;11.73;3.70;;;8.40;99.90;;;;;;7373237;19;20022;-62
2023/11/04 03:51:28;;;;;;;6.55;3.60;;;8.40;99.90;;;;;;7373772;19;20489;-62
2023/11/04 03:54:18;;;;;;;6.90;3.70;;;8.40;99.90;;;;;;7372411;19;20014;-62
2023/11/04 03:57:04;;;;;;;4.82;3.33;;;8.40;99.90;;;;;;7367980;19;20772;-61
2023/11/04 03:59:50;;;;;;;6.88;3.33;;;8.50;99.90;;;;;;7371487;19;20026;-62
2023/11/04 04:02:36;;;;;;;8.55;3.63;;;8.50;99.90;;;;;;7371842;19;20035;-62
2023/11/04 04:05:23;;;;;;;6.43;3.50;;;8.50;99.90;;;;;;7371908;19;20018;-61
2023/11/04 04:08:09;;;;;;;5.88;3.97;;;8.50;99.90;;;;;;7370016;19;20051;-62
2023/11/04 04:10:57;;;;;;;6.72;3.53;;;8.50;99.90;;;;;;7372019;19;20037;-67
2023/11/04 04:13:43;;;;;;;7.32;3.22;;;8.50;99.90;;;;;;7367678;19;20498;-67
2023/11/04 04:16:29;;;;;;;4.72;3.55;;;8.50;99.90;;;;;;7369426;19;20407;-66
2023/11/04 04:19:16;;;;;;;6.85;3.25;;;8.50;99.90;;;;;;7373629;19;20022;-66
2023/11/04 04:22:02;;;;;;;4.63;3.60;;;8.50;99.90;;;;;;7372967;19;20605;-66
2023/11/04 04:24:48;;;;;;;6.85;3.28;;;8.50;99.90;;;;;;7369470;19;20018;-62
2023/11/04 04:27:34;;;;;;;7.90;3.90;;;8.60;99.90;;;;;;7372545;19;20018;-67
2023/11/04 04:30:20;;;;;;;7.22;3.50;;;8.60;99.90;;;;;;7373744;19;20015;-66
2023/11/04 04:33:07;;;;;;;6.30;3.90;;;8.60;99.90;;;;;;7370325;19;20019;-66
2023/11/04 04:35:53;;;;;;;6.70;4.00;;;8.60;99.90;;;;;;7370243;19;20359;-62
2023/11/04 04:38:39;;;;;;;5.78;3.75;;;8.60;99.90;;;;;;7371257;19;20554;-61
2023/11/04 04:41:26;;;;;;;8.48;4.20;;;8.60;99.90;;;;;;7371231;19;20018;-62
2023/11/04 04:44:12;;;;;;;6.85;4.10;;;8.70;99.90;;;;;;7370081;19;20607;-66
2023/11/04 04:46:59;;;;;;;5.95;3.67;;;8.60;99.90;;;;;;7368651;19;20028;-66
2023/11/04 04:49:47;;;;;;;6.97;4.05;;;8.60;99.90;;;;;;7371276;19;20078;-66
2023/11/04 04:52:33;;;;;;;4.85;3.85;;;8.60;99.90;;;;;;7370818;19;20026;-66
2023/11/04 04:55:20;;;;;;;5.53;4.13;;;8.70;99.90;;;;;;7369437;19;20019;-66
2023/11/04 04:58:13;;;;;;;5.38;3.40;;;8.70;99.90;;;;;;7368241;19;20094;-66
2023/11/04 05:01:00;;;;;;;6.07;3.50;;;8.70;99.90;;;;;;7369251;19;20014;-67
2023/11/04 05:03:47;;;;;;;4.93;3.35;;;8.70;99.90;;;;;;7368384;19;20011;-67
2023/11/04 05:06:33;;;;;;;4.93;3.45;;;8.70;99.90;;;;;;7368676;19;20018;-66
2023/11/04 05:09:21;;;;;;;7.30;3.92;;;8.70;99.90;;;;;;7369841;19;20694;-66
2023/11/04 05:12:07;;;;;;;7.70;3.53;;;8.70;99.90;;;;;;7367188;19;20072;-66
2023/11/04 05:14:53;;;;;;;4.63;3.30;;;8.70;99.90;;;;;;7368024;19;20025;-66
2023/11/04 05:17:39;;;;;;;5.00;3.25;;;8.70;99.90;;;;;;7367283;19;20015;-66
2023/11/04 05:20:26;;;;;;;12.02;3.70;;;8.70;99.90;;;;;;7370455;19;20040;-66
2023/11/04 05:23:13;;;;;;;6.07;3.33;;;8.70;99.90;;;;;;7376338;19;20374;-66
2023/11/04 05:25:59;;;;;;;5.63;3.08;;;8.70;99.90;;;;;;7376141;19;20323;-67
2023/11/04 05:28:45;;;;;;;7.03;3.40;;;8.70;99.90;;;;;;7373911;19;20378;-67
2023/11/04 05:31:32;;;;;;;9.23;3.30;;;8.70;99.90;;;;;;7377019;19;20022;-66
2023/11/04 05:34:18;;;;;;;6.10;3.22;;;8.70;99.90;;;;;;7376397;19;20022;-66
2023/11/04 05:37:05;;;;;;;5.40;3.28;;;8.70;99.90;;;;;;7373078;19;20018;-67
2023/11/04 05:39:51;;;;;;;4.20;3.03;;;8.60;99.90;;;;;;7375012;19;20022;-66
2023/11/04 05:42:37;;;;;;;6.20;3.75;;;8.60;99.90;;;;;;7378226;19;20025;-67
2023/11/04 05:45:24;;;;;;;4.95;3.70;;;8.60;99.90;;;;;;7375245;19;20014;-66
2023/11/04 05:48:11;;;;;;;5.90;3.40;;;8.60;99.90;;;;;;7377938;19;20539;-67
2023/11/04 05:50:57;;;;;;;6.00;3.45;;;8.60;99.90;;;;;;7374243;19;20023;-66
2023/11/04 05:53:43;;;;;;;4.93;3.53;;;8.60;99.90;;;;;;7372753;19;20473;-62
2023/11/04 05:56:29;;;;;;;3.88;3.22;;;8.60;99.90;;;;;;7374131;19;20022;-62
2023/11/04 05:59:15;;;;;;;6.20;3.33;;;8.60;99.90;;;;;;7371759;19;20010;-66
2023/11/04 06:02:01;;;;;;;6.63;3.83;;;8.60;99.90;;;;;;7372543;19;20592;-66
2023/11/04 06:04:48;;;;;;;4.88;3.50;;;8.60;99.90;;;;;;7372555;19;20323;-67
2023/11/04 06:07:35;;;;;;;5.60;3.53;;;8.60;99.90;;;;;;7372960;19;20026;-66
2023/11/04 06:10:22;;;;;;;5.05;4.03;;;8.60;99.90;;;;;;7378073;19;20464;-66
2023/11/04 06:13:08;;;;;;;6.63;3.85;;;8.60;99.90;;;;;;7372080;19;20103;-66
2023/11/04 06:15:54;;;;;;;5.50;3.78;;;8.60;99.90;;;;;;7372938;19;20022;-69
2023/11/04 06:18:40;;;;;;;4.63;3.70;;;8.60;99.90;;;;;;7374566;19;20037;-66
2023/11/04 06:21:26;;;;;;;5.15;3.80;;;8.60;99.90;;;;;;7376796;19;20018;-67
2023/11/04 06:24:12;;;;;;;22.80;16.63;;;8.60;99.90;;;;;;7375124;19;20022;-63
2023/11/04 06:26:59;;;;;;;26.15;21.00;;;8.70;99.90;;;;;;7372869;19;20065;-68
2023/11/04 06:29:45;;;;;;;12.75;8.80;;;8.80;99.90;;;;;;7374833;19;20021;-72
2023/11/04 06:32:31;;;;;;;21.80;14.02;;;8.90;99.90;;;;;;7373870;19;20023;-70
2023/11/04 06:35:18;;;;;;;6.90;5.45;;;8.90;99.90;;;;;;7370196;19;20029;-67
2023/11/04 06:38:04;;;;;;;6.68;5.25;;;8.90;99.90;;;;;;7373101;19;20010;-67
2023/11/04 06:40:50;;;;;;;5.53;4.15;;;9.00;99.90;;;;;;7375243;19;20022;-67
2023/11/04 06:43:38;;;;;;;6.78;5.07;;;9.00;99.90;;;;;;7376080;19;20072;-67
2023/11/04 06:46:32;;;;;;;37.38;29.58;;;9.00;99.90;;;;;;7375723;19;20014;-67
2023/11/04 06:49:20;;;;;;;11.07;7.53;;;9.00;99.90;;;;;;7377886;19;20015;-68
2023/11/04 06:52:06;;;;;;;11.07;9.00;;;9.00;99.90;;;;;;7375566;19;20018;-67
2023/11/04 06:54:32;;;;;;;10.55;8.25;;;9.00;99.90;;;;;;7376928;19;20018;-68
2023/11/04 06:56:59;;;;;;;10.90;8.48;;;9.00;99.90;;;;;;7368101;19;20030;-69
2023/11/04 06:59:25;;;;;;;8.32;5.25;;;9.00;99.90;;;;;;7373129;19;20043;-68
2023/11/04 07:01:52;;;;;;;9.82;6.78;;;9.00;99.90;;;;;;7372512;19;20078;-67
2023/11/04 07:04:18;;;;;;;13.18;9.95;;;9.00;99.90;;;;;;7375348;19;21011;-62
2023/11/04 07:06:51;;;;;;;38.00;28.38;;;9.00;99.90;;;;;;7370333;19;20048;-68
2023/11/04 07:09:18;;;;;;;33.75;25.77;;;9.00;99.90;;;;;;7373632;19;20037;-67
2023/11/04 07:11:44;;;;;;;25.20;17.73;;;8.90;99.90;;;;;;7368174;19;20025;-68
2023/11/04 07:14:10;;;;;;;10.45;6.50;;;9.00;99.90;;;;;;7371935;19;20661;-61
2023/11/04 07:16:36;;;;;;;10.65;7.57;;;8.90;99.90;;;;;;7366487;19;20022;-61
2023/11/04 07:19:03;;;;;;;6.18;5.07;;;9.00;99.90;;;;;;7367118;19;20466;-69
2023/11/04 07:21:29;;;;;;;10.30;6.30;;;9.00;99.90;;;;;;7371869;19;20097;-67
2023/11/04 07:23:55;;;;;;;47.28;38.42;;;9.00;99.90;;;;;;7365263;19;20137;-60
2023/11/04 07:26:21;;;;;;;22.20;16.40;;;9.00;99.90;;;;;;7370330;19;20020;-68
2023/11/04 07:28:50;;;;;;;9.73;6.40;;;9.00;99.90;;;;;;7370736;19;20490;-67
2023/11/04 07:31:16;;;;;;;22.65;16.77;;;9.00;99.90;;;;;;7369908;19;20028;-67
2023/11/04 07:33:42;;;;;;;39.45;30.90;;;9.00;99.90;;;;;;7369063;19;20019;-66
2023/11/04 07:36:08;;;;;;;9.07;6.57;;;9.10;99.90;;;;;;7364530;19;20101;-68
2023/11/04 07:38:35;;;;;;;11.50;9.07;;;9.20;99.90;;;;;;7368117;19;20481;-64
2023/11/04 07:41:01;;;;;;;7.43;4.60;;;9.20;99.90;;;;;;7366981;19;20018;-68
2023/11/04 07:43:29;;;;;;;11.40;7.50;;;9.20;99.90;;;;;;7368667;19;20026;-68
2023/11/04 07:45:55;;;;;;;6.13;4.40;;;9.30;99.90;;;;;;7363341;19;20769;-68
2023/11/04 07:48:21;;;;;;;9.00;6.22;;;9.30;99.90;;;;;;7368620;19;20025;-68
2023/11/04 07:50:48;;;;;;;8.68;4.95;;;9.30;99.90;;;;;;7367984;19;20102;-60
2023/11/04 07:53:15;;;;;;;7.18;5.68;;;9.40;99.90;;;;;;7369958;19;20031;-60
2023/11/04 07:55:42;;;;;;;6.03;4.13;;;9.40;99.90;;;;;;7365767;19;20036;-61
2023/11/04 07:58:09;;;;;;;11.38;6.80;;;9.40;99.90;;;;;;7368174;19;20056;-61
2023/11/04 08:00:35;;;;;;;118.90;100.72;;;9.50;99.90;;;;;;7365989;19;20379;-60
2023/11/04 08:03:03;;;;;;;25.95;18.52;;;9.50;99.90;;;;;;7367524;19;20985;-65
2023/11/04 08:05:29;;;;;;;21.33;15.80;;;9.40;99.90;;;;;;7369810;19;20022;-65
2023/11/04 08:07:56;;;;;;;7.55;5.78;;;9.40;99.90;;;;;;7366708;19;20010;-61
2023/11/04 08:10:23;;;;;;;12.93;7.05;;;9.40;99.90;;;;;;7365869;19;20758;-62
2023/11/04 08:12:49;;;;;;;12.13;7.63;;;9.30;99.90;;;;;;7365833;19;20082;-61
2023/11/04 08:19:05;;;;;;;10.52;6.47;;;9.40;99.90;;;;;;7366572;19;20037;-60
2023/11/04 08:21:32;;;;;;;9.60;4.90;;;9.30;99.90;;;;;;7369174;19;20900;-65
2023/11/04 08:23:59;;;;;;;6.20;4.70;;;9.30;99.90;;;;;;7370539;19;20023;-62
2023/11/04 08:26:25;;;;;;;5.55;4.50;;;9.20;99.90;;;;;;7371933;19;20022;-59
2023/11/04 08:28:52;;;;;;;9.90;6.72;;;9.20;99.90;;;;;;7371332;19;20037;-60
2023/11/04 08:31:22;;;;;;;10.27;5.28;;;9.40;99.90;;;;;;7368596;19;20466;-65
2023/11/04 08:33:49;;;;;;;46.95;33.35;;;9.40;99.90;;;;;;7370012;19;20030;-62
2023/11/04 08:36:16;;;;;;;94.25;75.78;;;9.40;99.90;;;;;;7368345;19;20023;-65
2023/11/04 08:38:42;;;;;;;61.53;45.97;;;9.40;99.90;;;;;;7367717;19;20019;-65
2023/11/04 08:41:08;;;;;;;9.43;5.25;;;9.40;99.90;;;;;;7362379;19;20431;-67
2023/11/04 08:43:34;;;;;;;6.65;3.70;;;9.50;99.90;;;;;;7368117;19;20390;-65
2023/11/04 08:46:01;;;;;;;12.85;7.32;;;9.50;99.90;;;;;;7364788;19;20031;-67
2023/11/04 08:48:27;;;;;;;16.40;11.35;;;9.50;99.90;;;;;;7369657;19;20127;-67
2023/11/04 08:50:55;;;;;;;6.18;4.10;;;9.50;99.90;;;;;;7365839;19;20494;-66
2023/11/04 08:53:22;;;;;;;9.65;7.25;;;9.50;99.90;;;;;;7369002;19;21019;-66
2023/11/04 08:55:48;;;;;;;13.82;10.93;;;9.50;99.90;;;;;;7367197;19;20792;-65
2023/11/04 08:58:14;;;;;;;8.50;3.22;;;9.50;99.90;;;;;;7372257;19;20113;-66
2023/11/04 09:00:40;;;;;;;8.13;4.22;;;9.60;99.90;;;;;;7374809;19;20037;-68
2023/11/04 09:03:08;;;;;;;7.15;4.50;;;9.60;99.90;;;;;;7372937;19;20025;-60
2023/11/04 09:05:34;;;;;;;11.68;5.97;;;9.60;99.90;;;;;;7369431;19;20250;-60
2023/11/04 09:08:00;;;;;;;4.65;2.97;;;9.70;99.90;;;;;;7369902;19;21810;-61
2023/11/04 09:10:26;;;;;;;7.05;3.75;;;9.80;99.90;;;;;;7372790;19;20368;-65
2023/11/04 09:12:53;;;;;;;4.85;2.65;;;9.90;99.90;;;;;;7377282;19;20094;-64
2023/11/04 09:15:20;;;;;;;46.17;34.60;;;10.00;99.90;;;;;;7375728;19;20098;-66
2023/11/04 09:17:46;;;;;;;25.58;18.15;;;10.00;99.90;;;;;;7370184;19;20386;-66
2023/11/04 09:20:13;;;;;;;15.73;10.80;;;10.10;99.90;;;;;;7378771;19;20023;-65
2023/11/04 09:22:39;;;;;;;7.30;4.10;;;10.10;99.90;;;;;;7373099;19;20098;-63
2023/11/04 09:25:06;;;;;;;8.95;5.43;;;10.10;99.90;;;;;;7375004;19;20010;-59
2023/11/04 09:27:32;;;;;;;21.00;12.95;;;10.10;99.90;;;;;;7376049;19;20033;-59
2023/11/04 09:29:58;;;;;;;8.55;4.65;;;10.20;99.90;;;;;;7374554;19;20751;-59
2023/11/04 09:32:25;;;;;;;10.95;6.90;;;10.30;99.90;;;;;;7373019;19;20018;-59
2023/11/04 09:34:51;;;;;;;9.35;4.68;;;10.60;99.90;;;;;;7371054;19;20431;-64
2023/11/04 09:37:18;;;;;;;4.13;2.42;;;10.70;99.90;;;;;;7373090;19;20351;-64
2023/11/04 09:39:44;;;;;;;5.60;3.30;;;10.90;99.90;;;;;;7375439;19;20011;-64
2023/11/04 09:42:11;;;;;;;6.07;2.63;;;10.90;99.90;;;;;;7371665;19;20022;-60
2023/11/04 09:44:38;;;;;;;6.07;2.05;;;11.10;99.90;;;;;;7372960;19;20042;-60
2023/11/04 09:47:05;;;;;;;7.53;4.32;;;11.40;99.90;;;;;;7373409;19;20026;-60
2023/11/04 09:49:31;;;;;;;4.68;2.63;;;11.90;99.90;;;;;;7372343;19;20514;-60
2023/11/04 09:52:00;;;;;;;5.93;3.28;;;11.70;99.90;;;;;;7367608;19;20010;-60
2023/11/04 09:54:29;;;;;;;7.20;1.98;;;11.70;99.90;;;;;;7373953;19;20041;-61
2023/11/04 09:56:56;;;;;;;5.50;1.95;;;11.50;99.90;;;;;;7371810;19;20018;-60
2023/11/04 09:59:23;;;;;;;7.05;2.17;;;11.40;99.90;;;;;;7367586;19;20609;-60
2023/11/04 10:01:50;;;;;;;6.35;1.70;;;11.20;99.90;;;;;;7372874;19;20855;-60
2023/11/04 10:04:16;;;;;;;5.22;1.77;;;11.10;99.90;;;;;;7370763;19;20536;-61
2023/11/04 10:06:42;;;;;;;6.68;1.65;;;11.00;99.90;;;;;;7372245;19;20022;-60
2023/11/04 10:09:08;;;;;;;6.75;2.20;;;11.00;99.90;;;;;;7369365;19;20366;-62
2023/11/04 10:11:34;;;;;;;6.95;1.92;;;11.20;99.90;;;;;;7372777;19;20067;-61
2023/11/04 10:14:02;;;;;;;4.30;1.85;;;11.40;99.90;;;;;;7371581;19;20018;-63
2023/11/04 10:16:29;;;;;;;4.28;1.67;;;11.50;99.90;;;;;;7367528;19;20039;-66
2023/11/04 10:18:55;;;;;;;5.80;2.25;;;11.50;99.90;;;;;;7371259;19;20796;-60
2023/11/04 10:21:22;;;;;;;7.07;2.08;;;11.50;99.90;;;;;;7373393;19;20478;-67
2023/11/04 10:23:49;;;;;;;5.25;1.98;;;11.70;99.90;;;;;;7369511;19;20030;-67
2023/11/04 10:26:20;;;;;;;2.90;1.10;;;12.70;99.90;;;;;;7373209;19;20026;-65
2023/11/04 10:28:46;;;;;;;4.28;1.15;;;13.70;99.90;;;;;;7365855;19;20022;-60
2023/11/04 10:31:19;;;;;;;4.97;1.98;;;13.80;99.90;;;;;;7368832;19;20023;-59
2023/11/04 10:33:48;;;;;;;35.95;27.95;;;13.70;99.90;;;;;;7369134;19;20022;-60
2023/11/04 10:36:14;;;;;;;22.30;18.42;;;13.80;99.90;;;;;;7369743;19;20019;-61
2023/11/04 10:38:44;;;;;;;12.85;9.43;;;13.50;99.90;;;;;;7365186;19;20044;-61
2023/11/04 10:41:17;;;;;;;14.07;9.90;;;13.20;99.90;;;;;;7369247;19;20025;-68
2023/11/04 10:43:53;;;;;;;6.53;3.67;;;13.00;99.90;;;;;;7371800;19;20018;-66
2023/11/04 10:46:33;;;;;;;11.10;7.30;;;13.10;99.90;;;;;;7371601;19;20019;-66
2023/11/04 10:49:23;;;;;;;6.63;3.97;;;12.90;99.90;;;;;;7365451;19;20028;-67
2023/11/04 10:52:04;;;;;;;4.43;2.15;;;12.70;99.90;;;;;;7370542;19;20518;-68
2023/11/04 10:54:57;;;;;;;6.25;3.85;;;13.10;99.90;;;;;;7365917;19;20025;-62
2023/11/04 10:57:37;;;;;;;4.63;2.53;;;13.10;99.90;;;;;;7369936;19;20469;-60
2023/11/04 11:00:23;;;;;;;3.75;1.33;;;13.30;99.90;;;;;;7367645;19;21257;-63
2023/11/04 11:02:52;;;;;;;5.03;3.10;;;13.10;99.90;;;;;;7366713;19;20018;-67
2023/11/04 11:05:22;;;;;;;4.82;1.63;;;13.00;99.90;;;;;;7368507;19;20060;-64
2023/11/04 11:07:50;;;;;;;8.67;5.53;;;12.70;99.90;;;;;;7364694;19;20031;-65
2023/11/04 11:10:21;;;;;;;5.97;3.53;;;12.60;99.90;;;;;;7369317;19;20282;-65
2023/11/04 11:13:21;;;;;;;5.57;2.40;;;12.30;99.90;;;;;;7368722;19;20019;-65
2023/11/04 11:15:48;;;;;;;4.40;1.20;;;12.10;99.90;;;;;;7369119;19;20027;-64
2023/11/04 11:18:26;;;;;;;3.35;1.80;;;12.00;99.90;;;;;;7363029;19;20053;-68
2023/11/04 11:20:52;;;;;;;3.38;1.65;;;11.90;99.90;;;;;;7367495;19;20746;-65
2023/11/04 11:23:28;;;;;;;3.67;1.98;;;11.80;99.90;;;;;;7368461;19;20023;-65
2023/11/04 11:26:08;;;;;;;3.75;1.70;;;11.70;99.90;;;;;;7370183;19;20549;-65
2023/11/04 11:28:39;;;;;;;5.82;1.60;;;11.70;99.90;;;;;;7370898;19;20548;-67
2023/11/04 11:31:12;;;;;;;3.40;1.60;;;11.50;99.90;;;;;;7368413;19;20030;-65
2023/11/04 11:33:43;;;;;;;98.28;73.75;;;11.50;99.90;;;;;;7368185;19;20059;-63
2023/11/04 11:36:13;;;;;;;106.68;86.30;;;11.50;99.90;;;;;;7365834;19;20018;-63
2023/11/04 11:38:43;;;;;;;12.98;9.43;;;11.50;99.90;;;;;;7365584;19;20701;-65
2023/11/04 11:41:13;;;;;;;4.70;2.88;;;11.50;99.90;;;;;;7367569;19;20372;-63
2023/11/04 11:43:40;;;;;;;36.42;26.75;;;11.50;99.90;;;;;;7369278;19;20272;-66
2023/11/04 11:46:08;;;;;;;11.88;9.15;;;11.60;99.90;;;;;;7367597;19;21218;-64
2023/11/04 11:48:38;;;;;;;2.50;1.70;;;11.60;99.90;;;;;;7363298;19;20150;-62
2023/11/04 11:51:07;;;;;;;3.90;1.83;;;11.60;99.90;;;;;;7369270;19;20018;-62
2023/11/04 11:53:34;;;;;;;3.53;1.20;;;11.50;99.90;;;;;;7366170;19;20653;-63
2023/11/04 11:56:02;;;;;;;4.38;1.75;;;11.40;99.90;;;;;;7370080;19;20078;-62
2023/11/04 11:58:29;;;;;;;1.20;1.00;;;11.40;99.90;;;;;;7364269;19;20022;-63
2023/11/04 12:01:00;;;;;;;1.88;1.10;;;11.50;99.90;;;;;;7365213;19;20026;-62
2023/11/04 12:03:31;;;;;;;2.90;1.35;;;11.90;99.90;;;;;;7368666;19;20026;-62
2023/11/04 12:05:57;;;;;;;3.63;1.15;;;12.40;99.90;;;;;;7365276;19;20030;-63
2023/11/04 12:08:25;;;;;;;2.03;1.10;;;12.70;99.90;;;;;;7367484;19;20018;-63
2023/11/04 12:10:52;;;;;;;2.42;1.42;;;12.60;99.90;;;;;;7369333;19;20022;-64
2023/11/04 12:13:19;;;;;;;2.30;1.10;;;12.40;99.90;;;;;;7371983;19;20015;-63
2023/11/04 12:15:46;;;;;;;1.70;1.30;;;12.20;99.90;;;;;;7365402;19;20038;-63
2023/11/04 12:18:13;;;;;;;2.92;1.23;;;12.10;99.90;;;;;;7366928;19;20018;-63
2023/11/04 12:20:41;;;;;;;4.82;1.08;;;11.90;99.90;;;;;;7364816;19;20630;-63
2023/11/04 12:23:11;;;;;;;2.72;1.10;;;11.70;99.90;;;;;;7368775;19;20450;-63
2023/11/04 12:25:38;;;;;;;2.25;1.25;;;11.60;99.90;;;;;;7366079;19;20766;-63
2023/11/04 12:28:06;;;;;;;1.50;0.93;;;11.60;99.90;;;;;;7367999;19;20018;-63
2023/11/04 12:30:33;;;;;;;1.85;1.02;;;11.60;99.90;;;;;;7369879;19;20110;-63
2023/11/04 12:33:01;;;;;;;2.58;1.90;;;11.60;99.90;;;;;;7378116;19;20031;-63
2023/11/04 12:35:31;;;;;;;1.45;1.00;;;11.50;99.90;;;;;;7373096;19;20044;-63
2023/11/04 12:37:58;;;;;;;1.83;0.75;;;11.60;99.90;;;;;;7375142;19;20025;-63
2023/11/04 12:40:28;;;;;;;2.95;0.90;;;11.50;99.90;;;;;;7374174;19;20018;-63
2023/11/04 12:43:01;;;;;;;2.38;0.85;;;11.50;99.90;;;;;;7374212;19;20035;-62
2023/11/04 12:45:27;;;;;;;1.80;0.73;;;11.50;99.90;;;;;;7373178;19;20018;-63
2023/11/04 12:47:54;;;;;;;1.83;0.90;;;11.50;99.90;;;;;;7373778;19;20082;-63
2023/11/04 12:50:21;;;;;;;3.55;2.65;;;11.60;99.90;;;;;;7376085;19;20026;-62
2023/11/04 12:52:47;;;;;;;1.50;0.70;;;11.60;99.90;;;;;;7370793;19;20728;-63
2023/11/04 12:55:14;;;;;;;2.38;1.00;;;11.70;99.90;;;;;;7368636;19;20045;-63
2023/11/04 12:57:41;;;;;;;1.65;0.90;;;11.70;99.90;;;;;;7369200;19;20038;-63
2023/11/04 13:00:09;;;;;;;2.95;0.95;;;11.70;99.90;;;;;;7372727;19;20808;-63
2023/11/04 13:02:35;;;;;;;1.45;0.82;;;11.70;99.90;;;;;;7369396;19;20482;-62
2023/11/04 13:05:02;;;;;;;3.25;0.98;;;11.80;99.90;;;;;;7372039;19;20056;-63
2023/11/04 13:07:30;;;;;;;2.55;0.80;;;11.70;99.90;;;;;;7370497;19;20015;-65
2023/11/04 13:09:56;;;;;;;1.23;0.70;;;11.70;99.90;;;;;;7369271;19;20026;-62
2023/11/04 13:12:22;;;;;;;18.77;13.02;;;11.70;99.90;;;;;;7377450;19;21547;-62
2023/11/04 13:14:49;;;;;;;65.65;53.80;;;11.60;99.90;;;;;;7369792;19;20903;-66
2023/11/04 13:17:16;;;;;;;111.45;94.53;;;11.50;99.90;;;;;;7373098;19;20014;-67
2023/11/04 13:19:42;;;;;;;12.85;8.73;;;11.50;99.90;;;;;;7370623;19;20509;-67
2023/11/04 13:22:09;;;;;;;3.85;2.22;;;11.60;99.90;;;;;;7376219;19;20349;-66
2023/11/04 13:24:35;;;;;;;34.45;28.08;;;11.50;99.90;;;;;;7378908;19;20014;-66
2023/11/04 13:27:02;;;;;;;2.70;1.27;;;11.50;99.90;;;;;;7376981;19;20371;-66
2023/11/04 13:29:29;;;;;;;7.00;4.65;;;11.50;99.90;;;;;;7378284;19;20015;-66
2023/11/04 13:31:56;;;;;;;5.60;3.00;;;11.50;99.90;;;;;;7375351;19;20114;-66
2023/11/04 13:34:23;;;;;;;7.32;4.13;;;11.50;99.90;;;;;;7376170;19;20094;-65
2023/11/04 13:36:50;;;;;;;7.38;2.53;;;11.40;99.90;;;;;;7377718;19;20060;-65
2023/11/04 13:39:17;;;;;;;7.05;4.82;;;11.40;99.90;;;;;;7377635;19;21787;-66
2023/11/04 13:41:43;;;;;;;10.70;8.30;;;11.30;99.90;;;;;;7371667;19;20066;-66